Time;durP1;ratioP1;P1;durP2;ratioP2;P2;SDS_P1;SDS_P2;PMS_P1;PMS_P2;Temp;Humidity;BMP_temperature;BMP_pressure;BME280_temperature;BME280_humidity;BME280_pressure;Samples;Min_cycle;Max_cycle;Signal;HPM_P1;HPM_P2
2022/12/28 00:01:56;;;;;;;10.27;5.18;;;;;;;5.39;100.00;101633.28;5306236;28;20465;-85
2022/12/28 00:04:27;;;;;;;11.27;5.85;;;;;;;5.37;100.00;101616.66;5305852;28;20017;-85
2022/12/28 00:06:58;;;;;;;9.82;5.40;;;;;;;5.40;100.00;101629.69;5305995;28;20025;-84
2022/12/28 00:09:30;;;;;;;8.82;5.30;;;;;;;5.38;100.00;101617.50;5309747;28;20077;-83
2022/12/28 00:12:01;;;;;;;8.38;4.88;;;;;;;5.40;100.00;101605.88;5315383;28;20392;-84
2022/12/28 00:14:34;;;;;;;9.43;5.43;;;;;;;5.38;100.00;101596.31;5313254;28;20072;-85
2022/12/28 00:17:05;;;;;;;10.48;5.88;;;;;;;5.40;100.00;101590.00;5313608;28;20023;-84
2022/12/28 00:19:36;;;;;;;10.30;5.28;;;;;;;5.42;100.00;101574.06;5313833;28;20452;-84
2022/12/28 00:22:07;;;;;;;12.05;5.57;;;;;;;5.44;100.00;101565.06;5291256;28;20052;-84
2022/12/28 00:24:39;;;;;;;11.13;5.57;;;;;;;5.44;100.00;101558.94;5310042;28;20491;-84
2022/12/28 00:27:10;;;;;;;10.38;5.32;;;;;;;5.46;100.00;101533.22;5314446;28;20012;-84
2022/12/28 00:29:41;;;;;;;6.65;4.90;;;;;;;5.42;100.00;101535.22;5329488;28;20033;-85
2022/12/28 00:32:13;;;;;;;8.68;5.03;;;;;;;5.45;100.00;101544.75;5329178;28;20028;-84
2022/12/28 00:34:44;;;;;;;9.98;5.35;;;;;;;5.54;100.00;101545.97;5329382;28;20021;-84
2022/12/28 00:37:15;;;;;;;10.20;4.90;;;;;;;5.54;100.00;101535.41;5329155;28;20127;-85
2022/12/28 00:39:47;;;;;;;10.88;4.88;;;;;;;5.58;100.00;101536.94;5329651;28;20020;-84
2022/12/28 00:42:18;;;;;;;10.13;5.43;;;;;;;5.65;100.00;101533.81;5327447;28;20033;-84
2022/12/28 00:44:49;;;;;;;6.57;4.72;;;;;;;5.68;100.00;101532.78;5329974;28;20007;-84
2022/12/28 00:47:21;;;;;;;9.73;4.82;;;;;;;5.71;100.00;101527.28;5330957;28;20024;-85
2022/12/28 00:49:52;;;;;;;7.63;4.68;;;;;;;5.79;100.00;101525.03;5331257;28;20025;-84
2022/12/28 00:52:23;;;;;;;9.80;5.07;;;;;;;5.80;100.00;101510.84;5329977;28;20076;-83
2022/12/28 00:54:54;;;;;;;8.25;5.10;;;;;;;5.85;100.00;101513.19;5314783;28;20024;-86
2022/12/28 00:57:26;;;;;;;7.95;4.47;;;;;;;5.81;100.00;101498.47;5317425;28;20108;-85
2022/12/28 00:59:57;;;;;;;10.82;4.63;;;;;;;5.85;100.00;101486.72;5331588;28;20005;-84
2022/12/28 01:02:28;;;;;;;9.80;5.07;;;;;;;5.88;100.00;101511.22;5331315;28;20047;-85
2022/12/28 01:05:00;;;;;;;6.88;4.75;;;;;;;5.94;100.00;101494.06;5323318;28;20557;-84
2022/12/28 01:07:31;;;;;;;7.32;4.35;;;;;;;5.96;100.00;101494.88;5318454;28;20027;-84
2022/12/28 01:10:03;;;;;;;6.75;5.20;;;;;;;5.95;100.00;101485.19;5330075;28;20107;-85
2022/12/28 01:12:35;;;;;;;9.20;5.18;;;;;;;5.96;100.00;101483.44;5318801;28;20017;-85
2022/12/28 01:15:12;;;;;;;8.35;4.35;;;;;;;5.96;100.00;101483.44;5324089;28;20052;-84
2022/12/28 01:17:43;;;;;;;8.50;4.40;;;;;;;5.98;100.00;101482.41;5306086;28;20025;-84
2022/12/28 01:20:15;;;;;;;8.73;4.50;;;;;;;5.98;100.00;101466.50;5326106;28;20031;-84
2022/12/28 01:22:46;;;;;;;10.88;5.13;;;;;;;6.03;100.00;101468.84;5329474;27;20028;-84
2022/12/28 01:25:17;;;;;;;7.80;4.25;;;;;;;6.06;100.00;101468.66;5323440;28;20028;-85
2022/12/28 01:27:49;;;;;;;5.93;3.78;;;;;;;6.11;100.00;101457.78;5308364;28;20042;-85
2022/12/28 01:30:20;;;;;;;7.32;4.68;;;;;;;6.12;100.00;101472.69;5307151;28;20024;-85
2022/12/28 01:32:51;;;;;;;9.20;4.45;;;;;;;6.15;100.00;101451.31;5305786;28;20044;-85
2022/12/28 01:35:22;;;;;;;9.63;4.72;;;;;;;6.19;100.00;101445.75;5305028;28;20096;-85
2022/12/28 01:37:55;;;;;;;8.60;3.72;;;;;;;6.20;100.00;101441.28;5302924;28;20127;-84
2022/12/28 01:40:27;;;;;;;8.80;4.47;;;;;;;6.24;100.00;101442.78;5305089;28;20063;-85
2022/12/28 01:42:58;;;;;;;5.90;3.60;;;;;;;6.27;100.00;101428.50;5303025;28;20474;-84
2022/12/28 01:45:29;;;;;;;6.22;3.95;;;;;;;6.30;100.00;101437.09;5304637;28;20671;-84
2022/12/28 01:48:01;;;;;;;9.63;5.00;;;;;;;6.39;100.00;101441.78;5304032;28;20070;-84
2022/12/28 01:50:32;;;;;;;6.60;3.53;;;;;;;6.44;100.00;101434.38;5304599;28;20073;-84
2022/12/28 01:53:04;;;;;;;6.32;3.60;;;;;;;6.48;100.00;101419.13;5304658;28;20465;-84
2022/12/28 01:55:40;;;;;;;6.60;3.80;;;;;;;6.52;100.00;101425.94;5304939;28;20749;-84
2022/12/28 01:58:16;;;;;;;8.40;4.50;;;;;;;6.56;100.00;101415.97;5307067;28;20033;-84
2022/12/28 02:00:47;;;;;;;10.17;4.13;;;;;;;6.58;100.00;101406.13;5307481;28;20008;-84
2022/12/28 02:03:24;;;;;;;8.73;4.10;;;;;;;6.63;100.00;101396.06;5307331;28;20325;-86
2022/12/28 02:05:59;;;;;;;;;;;;;;;6.65;100.00;101394.16;5307646;28;20071;-85
2022/12/28 02:08:36;;;;;;;10.93;3.65;;;;;;;6.69;100.00;101384.19;5306784;28;19913;-85
2022/12/28 02:11:11;;;;;;;5.43;3.30;;;;;;;6.69;100.00;101381.53;5305786;28;20089;-85
2022/12/28 02:13:49;;;;;;;7.13;3.13;;;;;;;6.71;100.00;101376.97;5306946;28;20542;-84
2022/12/28 02:16:20;;;;;;;7.68;3.88;;;;;;;6.73;100.00;101375.06;5306830;28;20059;-84
2022/12/28 02:18:52;;;;;;;5.78;3.58;;;;;;;6.76;100.00;101353.66;5307161;28;20075;-84
2022/12/28 02:21:30;;;;;;;6.38;4.07;;;;;;;6.78;100.00;101354.38;5307491;28;20017;-85
2022/12/28 02:24:27;;;;;;;7.22;3.42;;;;;;;6.78;100.00;101334.03;5307005;28;20016;-84
2022/12/28 02:27:15;;;;;;;6.90;3.60;;;;;;;6.70;100.00;101344.31;5306331;28;20021;-84
2022/12/28 02:30:02;;;;;;;5.57;3.55;;;;;;;6.66;100.00;101336.66;5306684;28;20037;-84
2022/12/28 02:32:53;;;;;;;5.07;4.00;;;;;;;6.67;100.00;101325.13;5305205;28;20032;-84
2022/12/28 02:35:37;;;;;;;6.13;4.20;;;;;;;6.68;100.00;101317.06;5307238;28;20122;-84
2022/12/28 02:38:21;;;;;;;4.95;3.47;;;;;;;6.71;100.00;101316.84;5305950;28;20013;-84
2022/12/28 02:41:05;;;;;;;6.75;4.30;;;;;;;6.67;100.00;101323.31;5305704;28;20031;-84
2022/12/28 02:43:37;;;;;;;5.75;4.40;;;;;;;6.63;100.00;101319.19;5305519;28;20096;-85
2022/12/28 02:52:03;;;;;;;7.23;5.03;;;;;;;6.47;100.00;101319.38;5309081;28;20025;-85
2022/12/28 02:58:22;;;;;;;9.73;5.75;;;;;;;6.44;100.00;101308.97;5329006;28;20036;-84
2022/12/28 03:01:12;;;;;;;8.27;5.60;;;;;;;6.41;100.00;101295.94;5328325;28;20029;-84
2022/12/28 03:03:59;;;;;;;13.50;6.45;;;;;;;6.40;100.00;101286.31;5312865;28;20013;-84
2022/12/28 03:09:42;;;;;;;10.40;6.53;;;;;;;6.37;100.00;101287.34;5306424;28;20408;-85
2022/12/28 03:12:31;;;;;;;10.00;7.00;;;;;;;6.37;100.00;101291.81;5304301;28;20037;-84
2022/12/28 03:15:14;;;;;;;9.10;6.32;;;;;;;6.41;100.00;101285.34;5305708;28;20119;-84
2022/12/28 03:32:05;;;;;;;10.70;8.13;;;;;;;6.51;100.00;101274.97;5305553;28;20120;-85
2022/12/28 03:34:37;;;;;;;9.27;7.88;;;;;;;6.50;100.00;101262.66;5306074;28;20023;-84
2022/12/28 03:37:24;;;;;;;9.90;8.18;;;;;;;6.50;100.00;101276.75;5306254;28;20021;-85
2022/12/28 03:40:18;;;;;;;9.32;8.43;;;;;;;6.54;100.00;101278.25;5306253;28;20033;-84
2022/12/28 03:45:53;;;;;;;10.45;8.20;;;;;;;6.59;100.00;101272.63;5312626;28;20040;-84
2022/12/28 03:48:24;;;;;;;9.00;7.75;;;;;;;6.61;100.00;101266.28;5310861;28;20028;-84
2022/12/28 03:50:56;;;;;;;8.40;7.60;;;;;;;6.63;100.00;101259.06;5306180;28;20055;-84
2022/12/28 03:53:43;;;;;;;14.63;8.48;;;;;;;6.69;100.00;101259.59;5306288;28;20016;-84
2022/12/28 03:56:26;;;;;;;14.43;7.43;;;;;;;6.74;100.00;101255.66;5304757;28;20083;-84
2022/12/28 03:58:58;;;;;;;9.52;7.97;;;;;;;6.74;100.00;101250.34;5304192;28;20031;-85
2022/12/28 04:01:29;;;;;;;10.35;7.60;;;;;;;6.79;100.00;101248.22;5298355;28;20358;-85
2022/12/28 04:04:01;;;;;;;9.45;6.80;;;;;;;6.80;100.00;101249.94;5305201;28;20021;-85
2022/12/28 04:06:32;;;;;;;11.35;7.13;;;;;;;6.82;100.00;101248.00;5304848;28;20025;-84
2022/12/28 04:09:04;;;;;;;10.88;7.18;;;;;;;6.85;100.00;101243.44;5307436;28;20017;-85
2022/12/28 04:11:36;;;;;;;8.35;6.93;;;;;;;6.84;100.00;101221.41;5304546;28;20033;-85
2022/12/28 04:14:07;;;;;;;9.73;6.38;;;;;;;6.90;100.00;101239.50;5303330;28;20052;-85
2022/12/28 04:16:38;;;;;;;8.85;6.85;;;;;;;6.94;100.00;101254.25;5305530;28;20052;-84
2022/12/28 04:19:11;;;;;;;8.93;6.47;;;;;;;7.00;100.00;101242.38;5304760;28;20122;-85
2022/12/28 04:21:42;;;;;;;13.18;6.63;;;;;;;6.97;100.00;101232.81;5287319;28;20575;-84
2022/12/28 04:24:13;;;;;;;6.30;5.70;;;;;;;7.05;100.00;101240.22;5305432;28;20086;-85
2022/12/28 04:26:45;;;;;;;8.45;5.60;;;;;;;7.07;100.00;101233.00;5305093;28;20020;-85
2022/12/28 04:29:16;;;;;;;9.73;6.20;;;;;;;7.11;100.00;101228.31;5305647;28;20111;-85
2022/12/28 04:31:47;;;;;;;8.95;6.38;;;;;;;7.13;100.00;101244.97;5305095;28;20063;-85
2022/12/28 04:34:18;;;;;;;9.38;5.97;;;;;;;7.15;100.00;101243.06;5305128;28;20071;-85
2022/12/28 04:36:50;;;;;;;12.73;6.25;;;;;;;7.18;100.00;101242.84;5303945;28;20465;-85
2022/12/28 04:39:21;;;;;;;7.72;5.90;;;;;;;7.17;100.00;101227.88;5303593;28;20024;-85
2022/12/28 04:41:53;;;;;;;8.63;5.47;;;;;;;7.17;100.00;101217.25;5286295;28;20389;-84
2022/12/28 04:44:24;;;;;;;9.52;5.88;;;;;;;7.17;100.00;101227.88;5304678;28;20020;-85
2022/12/28 04:46:55;;;;;;;11.48;6.38;;;;;;;7.19;100.00;101232.13;5305192;28;20357;-85
2022/12/28 04:49:27;;;;;;;15.27;6.78;;;;;;;7.18;100.00;101224.28;5287266;28;20093;-85
2022/12/28 04:51:58;;;;;;;8.35;6.30;;;;;;;7.22;100.00;101225.72;5286289;28;20063;-85
2022/12/28 04:54:29;;;;;;;9.57;6.57;;;;;;;7.22;100.00;101227.53;5304968;28;20158;-85
2022/12/28 04:57:01;;;;;;;9.13;6.88;;;;;;;7.23;100.00;101223.94;5304658;28;20078;-84
2022/12/28 04:59:32;;;;;;;11.90;7.50;;;;;;;7.23;100.00;101221.28;5303276;28;20025;-84
2022/12/28 05:02:04;;;;;;;10.23;7.20;;;;;;;7.24;100.00;101212.34;5304415;28;20017;-85
2022/12/28 05:04:35;;;;;;;11.68;7.30;;;;;;;7.25;100.00;101225.50;5305140;28;20143;-84
2022/12/28 05:07:06;;;;;;;8.25;6.97;;;;;;;7.27;100.00;101223.59;5304663;28;20036;-85
2022/12/28 05:09:37;;;;;;;11.70;7.18;;;;;;;7.27;100.00;101214.78;5286444;28;20048;-85
2022/12/28 05:12:09;;;;;;;11.57;7.63;;;;;;;7.26;100.00;101224.56;5304497;28;20028;-85
2022/12/28 05:14:41;;;;;;;10.77;6.80;;;;;;;7.29;100.00;101223.47;5304336;28;20489;-85
2022/12/28 05:17:12;;;;;;;8.65;6.82;;;;;;;7.32;100.00;101223.28;5303102;28;20033;-86
2022/12/28 05:19:43;;;;;;;9.45;6.95;;;;;;;7.32;100.00;101202.88;5304196;28;20492;-85
2022/12/28 05:22:15;;;;;;;11.60;7.20;;;;;;;7.31;100.00;101240.13;5304960;28;20044;-85
2022/12/28 05:24:47;;;;;;;10.68;6.80;;;;;;;7.31;100.00;101222.44;5307534;28;20035;-85
2022/12/28 05:27:18;;;;;;;9.75;7.05;;;;;;;7.32;100.00;101236.53;5317165;28;20013;-84
2022/12/28 05:29:50;;;;;;;13.63;7.82;;;;;;;7.32;100.00;101205.53;5316913;28;20342;-84
2022/12/28 05:32:21;;;;;;;12.80;6.80;;;;;;;7.33;100.00;101203.75;5321333;28;20078;-85
2022/12/28 05:34:52;;;;;;;9.05;7.20;;;;;;;7.33;100.00;101209.91;5324887;28;20020;-85
2022/12/28 05:37:23;;;;;;;11.63;7.45;;;;;;;7.32;100.00;101197.56;5318946;28;20040;-84
2022/12/28 05:39:55;;;;;;;10.02;6.95;;;;;;;7.42;100.00;101196.91;5309570;28;20048;-85
2022/12/28 05:42:26;;;;;;;10.55;6.93;;;;;;;7.37;100.00;101205.22;5307047;28;20373;-85
2022/12/28 05:44:57;;;;;;;10.05;7.45;;;;;;;7.41;100.00;101217.28;5308125;28;20024;-85
2022/12/28 05:47:29;;;;;;;11.25;7.35;;;;;;;7.45;100.00;101215.25;5288878;28;20023;-85
2022/12/28 05:50:00;;;;;;;7.57;6.78;;;;;;;7.45;100.00;101210.81;5309018;28;20020;-85
2022/12/28 05:52:31;;;;;;;9.85;7.40;;;;;;;7.47;100.00;101210.66;5308494;28;20016;-85
2022/12/28 05:55:03;;;;;;;9.07;6.95;;;;;;;7.45;100.00;101213.47;5308388;28;20115;-85
2022/12/28 05:57:34;;;;;;;10.32;6.90;;;;;;;7.47;100.00;101208.88;5307961;28;20104;-85
2022/12/28 06:00:06;;;;;;;9.25;7.50;;;;;;;7.47;100.00;101198.25;5307564;28;20016;-85
2022/12/28 06:02:38;;;;;;;7.43;6.65;;;;;;;7.45;100.00;101218.78;5308191;28;20027;-85
2022/12/28 06:05:09;;;;;;;8.50;6.93;;;;;;;7.48;100.00;101184.00;5307525;28;20024;-85
2022/12/28 06:07:40;;;;;;;10.60;7.00;;;;;;;7.51;100.00;101196.22;5308380;28;20502;-85
2022/12/28 06:10:11;;;;;;;8.57;6.95;;;;;;;7.53;100.00;101178.38;5306850;28;20024;-86
2022/12/28 06:12:43;;;;;;;8.32;6.40;;;;;;;7.51;100.00;101175.81;5307571;28;20069;-85
2022/12/28 06:15:14;;;;;;;8.85;6.20;;;;;;;7.49;100.00;101171.63;5306094;28;20044;-85
2022/12/28 06:17:45;;;;;;;7.05;6.20;;;;;;;7.54;100.00;101170.28;5307599;28;20023;-85
2022/12/28 06:20:17;;;;;;;7.68;6.05;;;;;;;7.55;100.00;101171.97;5307362;28;20047;-85
2022/12/28 06:22:48;;;;;;;6.80;6.10;;;;;;;7.53;100.00;101168.59;5307215;28;20373;-85
2022/12/28 06:25:19;;;;;;;7.28;6.07;;;;;;;7.55;100.00;101176.44;5306328;28;20025;-85
2022/12/28 06:27:51;;;;;;;12.77;7.57;;;;;;;7.57;100.00;101158.59;5307318;28;20461;-85
2022/12/28 06:30:22;;;;;;;10.70;6.95;;;;;;;7.62;100.00;101169.72;5307563;28;20025;-85
2022/12/28 06:32:55;;;;;;;9.30;6.65;;;;;;;7.61;100.00;101148.59;5288950;28;20084;-86
2022/12/28 06:35:27;;;;;;;7.55;6.50;;;;;;;7.61;100.00;101146.78;5306507;28;20020;-86
2022/12/28 06:37:58;;;;;;;9.88;6.28;;;;;;;7.62;100.00;101147.63;5306902;28;20027;-85
2022/12/28 06:40:29;;;;;;;9.07;7.57;;;;;;;7.64;100.00;101149.19;5306019;28;20028;-85
2022/12/28 06:43:01;;;;;;;7.55;6.85;;;;;;;7.64;100.00;101146.53;5306262;28;20027;-85
2022/12/28 06:45:32;;;;;;;8.40;6.20;;;;;;;7.66;100.00;101136.69;5306080;28;21563;-85
2022/12/28 06:48:03;;;;;;;7.95;6.60;;;;;;;7.63;100.00;101144.03;5288153;28;20017;-85
2022/12/28 06:50:35;;;;;;;8.20;6.55;;;;;;;7.67;100.00;101142.81;5307014;28;20028;-85
2022/12/28 06:53:06;;;;;;;9.38;6.63;;;;;;;7.67;100.00;101148.13;5287392;28;20021;-85
2022/12/28 06:55:37;;;;;;;8.80;7.22;;;;;;;7.69;100.00;101164.78;5306296;28;20099;-85
2022/12/28 06:58:09;;;;;;;7.85;6.70;;;;;;;7.65;100.00;101140.28;5306062;28;20024;-85
2022/12/28 07:00:40;;;;;;;10.48;6.75;;;;;;;7.70;100.00;101137.28;5306731;28;20017;-85
2022/12/28 07:03:11;;;;;;;8.95;6.72;;;;;;;7.69;100.00;101136.41;5304246;28;20158;-85
2022/12/28 07:05:43;;;;;;;8.88;6.88;;;;;;;7.69;100.00;101139.06;5306147;28;20044;-85
2022/12/28 07:08:15;;;;;;;9.75;6.75;;;;;;;7.71;100.00;101134.53;5306502;28;20473;-85
2022/12/28 07:10:46;;;;;;;11.55;6.70;;;;;;;7.73;100.00;101137.03;5313855;28;20009;-84
2022/12/28 07:13:18;;;;;;;10.48;6.63;;;;;;;7.74;100.00;101128.13;5305802;28;20029;-85
2022/12/28 07:15:49;;;;;;;11.60;6.40;;;;;;;7.74;100.00;101128.13;5308305;28;20016;-85
2022/12/28 07:18:21;;;;;;;7.50;6.18;;;;;;;7.72;100.00;101130.88;5313927;28;20020;-85
2022/12/28 07:20:58;;;;;;;9.45;5.57;;;;;;;7.75;100.00;101138.63;5312844;28;20102;-85
2022/12/28 07:23:30;;;;;;;9.52;6.55;;;;;;;7.78;100.00;101148.16;5306907;28;20033;-85
2022/12/28 07:26:26;;;;;;;10.63;6.45;;;;;;;7.81;100.00;101131.16;5306080;28;20021;-85
2022/12/28 07:28:59;;;;;;;7.57;5.97;;;;;;;7.79;100.00;101136.59;5297811;28;20045;-85
2022/12/28 07:31:33;;;;;;;10.02;6.05;;;;;;;7.79;100.00;101125.13;5305623;28;20035;-85
2022/12/28 07:34:04;;;;;;;8.00;6.55;;;;;;;7.76;100.00;101124.38;5304505;28;20044;-85
2022/12/28 07:36:36;;;;;;;8.75;5.32;;;;;;;7.79;100.00;101138.41;5305946;28;20064;-85
2022/12/28 07:39:07;;;;;;;7.80;5.78;;;;;;;7.82;100.00;101124.88;5306428;28;20020;-84
2022/12/28 07:41:38;;;;;;;8.10;5.30;;;;;;;7.81;100.00;101137.31;5306358;28;20473;-84
2022/12/28 07:44:09;;;;;;;7.47;5.95;;;;;;;7.83;100.00;101124.75;5305673;28;20044;-86
2022/12/28 07:46:41;;;;;;;8.65;5.45;;;;;;;7.85;100.00;101133.44;5305970;28;20033;-85
2022/12/28 07:49:12;;;;;;;7.15;5.60;;;;;;;7.86;100.00;101131.66;5306269;28;20150;-85
2022/12/28 07:51:43;;;;;;;6.60;5.35;;;;;;;7.85;100.00;101120.16;5306810;28;20116;-85
2022/12/28 07:54:15;;;;;;;9.27;5.90;;;;;;;7.87;100.00;101151.91;5308003;28;20013;-85
2022/12/28 07:56:46;;;;;;;7.85;5.85;;;;;;;7.86;100.00;101140.47;5309898;28;20059;-85
2022/12/28 07:59:17;;;;;;;6.65;5.95;;;;;;;7.85;100.00;101133.44;5318807;28;20325;-85
2022/12/28 08:01:50;;;;;;;9.18;5.65;;;;;;;7.86;100.00;101121.03;5330016;28;20044;-83
2022/12/28 08:04:21;;;;;;;8.55;6.10;;;;;;;7.87;100.00;101130.66;5324677;28;20033;-85
2022/12/28 08:06:52;;;;;;;9.45;5.85;;;;;;;7.89;100.00;101142.88;5322314;28;20044;-85
2022/12/28 08:09:24;;;;;;;7.15;6.20;;;;;;;7.90;100.00;101130.44;5306621;28;20044;-85
2022/12/28 08:11:55;;;;;;;6.93;6.10;;;;;;;7.93;100.00;101130.22;5306586;28;20086;-85
2022/12/28 08:14:28;;;;;;;8.77;5.72;;;;;;;7.95;100.00;101125.63;5305659;28;20044;-85
2022/12/28 08:17:02;;;;;;;6.47;5.50;;;;;;;7.95;100.00;101136.25;5305584;28;20028;-85
2022/12/28 08:19:33;;;;;;;7.82;5.53;;;;;;;7.98;100.00;101136.03;5305674;28;20009;-85
2022/12/28 08:22:05;;;;;;;10.38;6.43;;;;;;;7.97;100.00;101129.00;5305855;28;20477;-85
2022/12/28 08:24:36;;;;;;;7.70;5.85;;;;;;;7.95;100.00;101117.66;5304025;28;20013;-85
2022/12/28 08:27:08;;;;;;;9.48;5.70;;;;;;;7.98;100.00;101125.41;5304633;28;20032;-85
2022/12/28 08:29:39;;;;;;;8.38;6.15;;;;;;;7.99;100.00;101129.72;5305383;28;20088;-86
2022/12/28 08:32:10;;;;;;;7.00;6.28;;;;;;;8.01;100.00;101126.94;5305333;28;20040;-85
2022/12/28 08:34:41;;;;;;;10.25;5.95;;;;;;;8.01;100.00;101153.53;5305823;28;20389;-85
2022/12/28 08:37:13;;;;;;;11.82;6.60;;;;;;;8.02;100.00;101134.81;5304016;28;20032;-85
2022/12/28 08:39:44;;;;;;;10.88;6.18;;;;;;;8.00;100.00;101123.47;5305164;28;20381;-85
2022/12/28 08:42:15;;;;;;;9.38;5.78;;;;;;;8.03;100.00;101123.22;5304739;28;20059;-85
2022/12/28 08:44:47;;;;;;;12.70;6.45;;;;;;;8.05;100.00;101115.97;5305658;28;20123;-85
2022/12/28 08:47:18;;;;;;;12.18;6.25;;;;;;;8.08;100.00;101117.53;5304906;28;20021;-85
2022/12/28 08:49:49;;;;;;;10.75;5.53;;;;;;;8.13;100.00;101132.19;5305086;28;20563;-85
2022/12/28 08:52:23;;;;;;;14.00;6.57;;;;;;;8.10;100.00;101121.78;5305033;28;20039;-86
2022/12/28 08:54:55;;;;;;;10.77;5.75;;;;;;;8.10;100.00;101148.34;5304419;28;20025;-85
2022/12/28 08:57:26;;;;;;;7.57;5.07;;;;;;;8.13;100.00;101126.00;5304563;28;20024;-85
2022/12/28 08:59:57;;;;;;;10.82;5.40;;;;;;;8.07;100.00;101113.22;5305293;28;20051;-86
2022/12/28 09:02:29;;;;;;;9.82;5.72;;;;;;;8.09;100.00;101132.53;5304865;28;20079;-85
2022/12/28 09:05:00;;;;;;;10.93;5.70;;;;;;;8.09;100.00;101128.06;5301730;28;20075;-85
2022/12/28 09:07:31;;;;;;;10.70;5.22;;;;;;;8.09;100.00;101119.25;5303287;28;20016;-85
2022/12/28 09:10:03;;;;;;;13.23;5.68;;;;;;;8.09;100.00;101138.69;5304426;28;20048;-85
2022/12/28 09:12:34;;;;;;;12.90;6.15;;;;;;;8.12;100.00;101122.50;5303906;28;20123;-85
2022/12/28 09:15:07;;;;;;;9.50;5.90;;;;;;;8.09;100.00;101121.91;5305392;28;20047;-85
2022/12/28 09:17:38;;;;;;;9.98;6.15;;;;;;;8.12;100.00;101127.81;5306043;28;20024;-85
2022/12/28 09:20:10;;;;;;;10.20;5.57;;;;;;;8.13;100.00;101121.56;5303130;28;20572;-85
2022/12/28 09:22:41;;;;;;;10.07;5.50;;;;;;;8.17;100.00;101126.59;5285655;28;20032;-85
2022/12/28 09:25:12;;;;;;;9.93;4.95;;;;;;;8.17;100.00;101138.09;5303066;28;20087;-85
2022/12/28 09:27:47;;;;;;;9.00;4.80;;;;;;;8.21;100.00;101139.53;5302928;28;20028;-85
2022/12/28 09:30:18;;;;;;;12.35;4.97;;;;;;;8.21;100.00;101134.22;5285635;28;20025;-85
2022/12/28 09:33:57;;;;;;;11.05;4.85;;;;;;;8.21;100.00;101115.63;5304234;28;20059;-85
2022/12/28 09:35:41;;;;;;;7.90;4.78;;;;;;;8.25;100.00;101119.72;5303151;28;20119;-85
2022/12/28 09:38:12;;;;;;;5.93;3.92;;;;;;;8.28;100.00;101127.47;5285859;28;20123;-84
2022/12/28 09:40:46;;;;;;;8.32;4.00;;;;;;;8.30;100.00;101120.22;5302493;28;20108;-84
2022/12/28 09:43:18;;;;;;;5.15;3.83;;;;;;;8.34;100.00;101134.09;5303309;28;20040;-84
2022/12/28 09:45:53;;;;;;;6.45;4.03;;;;;;;8.38;100.00;101129.38;5303979;28;20013;-85
2022/12/28 09:48:26;;;;;;;3.80;3.50;;;;;;;8.38;100.00;101140.88;5303792;28;20013;-84
2022/12/28 09:50:58;;;;;;;6.72;3.53;;;;;;;8.40;100.00;101125.66;5304151;28;20017;-85
2022/12/28 09:53:32;;;;;;;5.40;3.10;;;;;;;8.45;100.00;101117.34;5302329;28;20070;-85
2022/12/28 09:56:19;;;;;;;6.15;3.10;;;;;;;8.48;100.00;101117.09;5303333;28;20017;-85
2022/12/28 09:58:51;;;;;;;4.88;2.70;;;;;;;8.44;100.00;101131.59;5303460;28;20048;-85
2022/12/28 10:01:24;;;;;;;4.85;3.03;;;;;;;8.46;100.00;101127.84;5285178;28;20068;-85
2022/12/28 10:04:00;;;;;;;4.30;2.65;;;;;;;8.47;100.00;101116.25;5284997;28;20032;-84
2022/12/28 10:06:35;;;;;;;3.08;2.50;;;;;;;8.46;100.00;101119.88;5303649;28;20057;-85
2022/12/28 10:09:13;;;;;;;3.20;2.70;;;;;;;8.45;100.00;101112.88;5297529;28;20062;-85
2022/12/28 10:11:45;;;;;;;4.07;2.30;;;;;;;8.40;100.00;101109.72;5303845;28;20025;-85
2022/12/28 10:14:34;;;;;;;3.55;2.40;;;;;;;8.47;100.00;101113.59;5303724;28;20037;-85
2022/12/28 10:17:08;;;;;;;3.78;2.58;;;;;;;8.40;100.00;101103.56;5303902;28;20365;-85
2022/12/28 10:19:39;;;;;;;2.70;2.50;;;;;;;8.41;100.00;101106.06;5307788;28;20028;-85
2022/12/28 10:22:15;;;;;;;5.05;2.55;;;;;;;8.43;100.00;101098.88;5307849;28;20051;-85
2022/12/28 10:24:47;;;;;;;2.97;2.70;;;;;;;8.45;100.00;101109.34;5307071;28;20052;-86
2022/12/28 10:27:23;;;;;;;3.30;2.70;;;;;;;8.45;100.00;101096.94;5309923;28;20418;-85
2022/12/28 10:29:58;;;;;;;4.87;2.90;;;;;;;8.42;100.00;101094.50;5308386;28;20017;-85
2022/12/28 10:32:47;;;;;;;5.72;3.28;;;;;;;8.47;100.00;101108.28;5315908;28;20277;-85
2022/12/28 10:35:28;;;;;;;4.88;2.90;;;;;;;8.46;100.00;101103.09;5325174;28;20024;-84
2022/12/28 10:38:31;;;;;;;4.53;3.08;;;;;;;8.45;100.00;101088.09;5311606;28;20074;-84
2022/12/28 10:41:08;;;;;;;3.15;2.70;;;;;;;8.45;100.00;101094.28;5305331;28;20397;-85
2022/12/28 10:43:42;;;;;;;3.28;2.55;;;;;;;8.47;100.00;101089.69;5307978;28;20381;-85
2022/12/28 10:46:24;;;;;;;5.20;3.50;;;;;;;8.49;100.00;101093.06;5308185;28;20032;-85
2022/12/28 10:48:59;;;;;;;6.78;4.15;;;;;;;8.49;100.00;101081.56;5311158;28;20028;-86
2022/12/28 10:51:30;;;;;;;8.85;3.42;;;;;;;8.48;100.00;101090.50;5314186;28;20398;-85
2022/12/28 10:54:02;;;;;;;4.15;3.42;;;;;;;8.48;100.00;101091.34;5313626;28;20035;-85
2022/12/28 10:56:46;;;;;;;5.72;3.53;;;;;;;8.48;100.00;101077.22;5306948;28;20017;-85
2022/12/28 10:59:29;;;;;;;6.20;3.63;;;;;;;8.49;100.00;101090.38;5306169;28;20112;-85
2022/12/28 11:02:21;;;;;;;6.28;3.78;;;;;;;8.44;100.00;101089.91;5305921;28;20017;-85
2022/12/28 11:05:01;;;;;;;4.72;3.83;;;;;;;8.46;100.00;101080.00;5307007;28;20017;-86
2022/12/28 11:07:37;;;;;;;6.53;3.90;;;;;;;8.48;100.00;101095.81;5306143;28;20027;-84
2022/12/28 11:10:26;;;;;;;8.50;4.00;;;;;;;8.47;100.00;101078.22;5304450;28;20103;-85
2022/12/28 11:13:00;;;;;;;5.22;3.88;;;;;;;8.47;100.00;101081.69;5285117;28;20033;-85
2022/12/28 11:15:32;;;;;;;7.75;3.90;;;;;;;8.49;100.00;101065.63;5284869;28;20115;-85
2022/12/28 11:18:19;;;;;;;7.50;4.07;;;;;;;8.47;100.00;101065.75;5285716;28;20361;-85
2022/12/28 11:20:51;;;;;;;;;;;;;;;8.51;100.00;101061.03;5287334;28;20029;-85
2022/12/28 11:23:30;;;;;;;6.75;3.92;;;;;;;8.48;100.00;101078.06;5285352;28;19912;-85
2022/12/28 11:26:01;;;;;;;8.68;4.28;;;;;;;8.47;100.00;101043.66;5282848;28;20109;-86
2022/12/28 11:28:33;;;;;;;6.00;3.97;;;;;;;8.55;100.00;101054.47;5284673;28;20111;-87
2022/12/28 11:31:06;;;;;;;4.88;3.88;;;;;;;8.51;100.00;101039.75;5285144;28;20021;-85
2022/12/28 11:33:42;;;;;;;4.25;3.65;;;;;;;8.52;100.00;101036.97;5283098;28;20068;-86
2022/12/28 11:36:19;;;;;;;9.88;4.68;;;;;;;8.52;100.00;101033.47;5284491;28;20489;-86
2022/12/28 11:39:26;;;;;;;9.30;3.97;;;;;;;8.55;100.00;101027.91;5286014;28;20037;-87
2022/12/28 11:41:59;;;;;;;5.65;4.30;;;;;;;8.52;100.00;101033.47;5286473;28;20047;-85
2022/12/28 11:44:33;;;;;;;6.97;3.60;;;;;;;8.54;100.00;101028.88;5290420;28;20089;-86
2022/12/28 11:47:21;;;;;;;6.40;3.83;;;;;;;8.56;100.00;101020.78;5288969;28;20021;-85
2022/12/28 11:49:52;;;;;;;7.88;3.78;;;;;;;8.51;100.00;101024.66;5287840;28;20127;-87
2022/12/28 11:52:43;;;;;;;9.15;3.75;;;;;;;8.52;100.00;101012.22;5287458;28;20025;-86
2022/12/28 11:55:20;;;;;;;6.18;3.10;;;;;;;8.55;100.00;101005.78;5288179;28;20052;-86
2022/12/28 11:57:53;;;;;;;7.10;3.35;;;;;;;8.50;100.00;101003.50;5286808;28;20033;-88
2022/12/28 12:00:37;;;;;;;9.20;4.28;;;;;;;8.49;100.00;100996.50;5270133;28;20020;-86
2022/12/28 12:03:08;;;;;;;4.90;3.00;;;;;;;8.45;100.00;100987.94;5287418;28;20021;-84
2022/12/28 12:05:39;;;;;;;6.30;2.92;;;;;;;8.48;100.00;100992.16;5287344;28;20036;-86
2022/12/28 12:08:10;;;;;;;7.95;3.60;;;;;;;8.47;100.00;101009.91;5288417;28;20025;-85
2022/12/28 12:10:49;;;;;;;7.25;3.17;;;;;;;8.51;100.00;101005.19;5288241;28;20371;-85
2022/12/28 12:13:29;;;;;;;6.32;3.42;;;;;;;8.50;100.00;100983.09;5287513;28;20061;-86
2022/12/28 12:16:05;;;;;;;6.78;3.13;;;;;;;8.48;100.00;100990.31;5287599;28;20025;-84
2022/12/28 12:18:47;;;;;;;6.25;3.03;;;;;;;8.48;100.00;100977.03;5282864;28;20017;-85
2022/12/28 12:21:32;;;;;;;8.45;3.72;;;;;;;8.49;100.00;100969.91;5284282;28;20017;-85
2022/12/28 12:24:43;;;;;;;10.05;3.30;;;;;;;8.47;100.00;100971.88;5282886;28;20376;-85
2022/12/28 12:27:23;;;;;;;8.65;3.38;;;;;;;8.44;100.00;100969.44;5252701;28;20211;-86